Time;durP1;ratioP1;P1;durP2;ratioP2;P2;SDS_P1;SDS_P2;PMS_P1;PMS_P2;Temp;Humidity;BMP_temperature;BMP_pressure;BME280_temperature;BME280_humidity;BME280_pressure;Samples;Min_cycle;Max_cycle;Signal;HPM_P1;HPM_P2
2022/03/14 00:01:02;;;;;;;22.73;9.55;;;7.90;48.30;;;;;;5005262;28;20042;-77
2022/03/14 00:03:28;;;;;;;18.67;9.65;;;7.90;48.40;;;;;;5004418;28;20066;-79
2022/03/14 00:05:54;;;;;;;19.25;9.65;;;7.90;48.40;;;;;;5003073;28;20022;-79
2022/03/14 00:08:21;;;;;;;20.45;9.70;;;7.90;48.40;;;;;;4998980;28;20117;-78
2022/03/14 00:10:51;;;;;;;23.20;9.38;;;7.90;48.40;;;;;;5001508;28;20041;-77
2022/03/14 00:13:18;;;;;;;22.33;9.82;;;7.90;48.40;;;;;;5000438;28;20453;-77
2022/03/14 00:15:44;;;;;;;20.95;9.90;;;7.90;48.50;;;;;;5004326;28;20025;-78
2022/03/14 00:18:10;;;;;;;19.55;9.50;;;7.80;48.50;;;;;;4998093;28;20018;-78
2022/03/14 00:20:36;;;;;;;20.50;8.80;;;7.80;48.60;;;;;;4981723;28;20483;-78
2022/03/14 00:23:02;;;;;;;22.85;9.55;;;7.80;48.80;;;;;;4999279;28;20034;-77
2022/03/14 00:25:30;;;;;;;27.25;9.77;;;7.80;48.80;;;;;;4999999;28;20034;-78
2022/03/14 00:27:55;;;;;;;22.38;10.02;;;7.70;48.80;;;;;;4999005;28;20030;-78
2022/03/14 00:30:22;;;;;;;19.90;9.32;;;7.70;48.80;;;;;;4999555;28;20084;-77
2022/03/14 00:32:47;;;;;;;19.15;9.10;;;7.70;48.80;;;;;;4985659;28;20462;-76
2022/03/14 00:35:13;;;;;;;20.13;9.00;;;7.70;48.90;;;;;;5000175;28;20030;-75
2022/03/14 00:37:39;;;;;;;19.05;8.95;;;7.70;48.90;;;;;;4997752;28;20023;-75
2022/03/14 00:40:07;;;;;;;22.40;9.77;;;7.70;48.90;;;;;;4987064;28;20018;-77
2022/03/14 00:42:33;;;;;;;16.25;8.57;;;7.70;49.00;;;;;;4998082;28;20037;-76
2022/03/14 00:44:59;;;;;;;20.92;9.10;;;7.70;48.90;;;;;;4999658;28;20042;-75
2022/03/14 00:47:24;;;;;;;22.17;9.32;;;7.70;48.90;;;;;;5001575;28;20029;-78
2022/03/14 00:49:50;;;;;;;22.23;9.82;;;7.70;49.00;;;;;;5003302;28;20042;-77
2022/03/14 00:52:18;;;;;;;21.13;9.32;;;7.60;49.00;;;;;;4979760;28;20026;-77
2022/03/14 00:54:45;;;;;;;23.90;9.32;;;7.60;49.00;;;;;;4995757;28;20022;-76
2022/03/14 00:57:11;;;;;;;24.75;9.93;;;7.60;49.10;;;;;;4997062;28;20029;-77
2022/03/14 00:59:39;;;;;;;18.13;9.40;;;7.60;49.20;;;;;;4997043;28;20494;-77
2022/03/14 01:02:04;;;;;;;22.05;9.10;;;7.50;49.10;;;;;;4995665;28;20033;-75
2022/03/14 01:04:30;;;;;;;22.75;9.80;;;7.50;49.70;;;;;;4995524;28;20033;-76
2022/03/14 01:06:56;;;;;;;20.27;9.82;;;7.50;49.30;;;;;;4995229;28;20509;-74
2022/03/14 01:09:21;;;;;;;20.05;9.57;;;7.50;49.30;;;;;;4995184;28;20464;-75
2022/03/14 01:11:47;;;;;;;22.10;9.73;;;7.50;49.40;;;;;;4995632;28;20057;-75
2022/03/14 01:14:13;;;;;;;20.45;8.93;;;7.40;49.40;;;;;;4995794;28;20073;-76
2022/03/14 01:16:39;;;;;;;23.95;9.82;;;7.50;49.50;;;;;;4995487;28;20019;-75
2022/03/14 01:19:05;;;;;;;20.50;9.75;;;7.40;49.60;;;;;;4996225;28;20434;-75
2022/03/14 01:21:31;;;;;;;19.70;9.85;;;7.40;49.60;;;;;;4995550;28;20033;-76
2022/03/14 01:23:58;;;;;;;24.80;9.63;;;7.40;49.60;;;;;;5004059;28;20026;-74
2022/03/14 01:26:23;;;;;;;24.25;9.90;;;7.30;49.60;;;;;;5016062;28;20045;-74
2022/03/14 01:28:49;;;;;;;20.50;9.25;;;7.30;49.60;;;;;;5017977;28;20034;-76
2022/03/14 01:31:15;;;;;;;19.45;9.55;;;7.30;49.70;;;;;;5017011;28;20062;-77
2022/03/14 01:33:41;;;;;;;21.23;9.38;;;7.30;49.80;;;;;;5016604;28;20061;-77
2022/03/14 01:36:06;;;;;;;18.48;8.80;;;7.30;50.00;;;;;;5014401;28;20022;-76
2022/03/14 01:38:32;;;;;;;29.92;9.93;;;7.30;50.00;;;;;;5014587;28;20117;-74
2022/03/14 01:40:57;;;;;;;20.15;9.85;;;7.20;50.10;;;;;;5015112;28;20045;-75
2022/03/14 01:43:25;;;;;;;23.05;10.05;;;7.20;50.00;;;;;;5015614;28;20026;-74
2022/03/14 01:45:54;;;;;;;24.40;9.93;;;7.20;50.10;;;;;;4998001;28;20029;-74
2022/03/14 01:48:19;;;;;;;22.30;9.68;;;7.20;50.20;;;;;;5015073;28;20498;-74
2022/03/14 01:50:45;;;;;;;19.10;9.32;;;7.20;50.30;;;;;;5015971;28;20025;-76
2022/03/14 01:53:12;;;;;;;20.70;8.95;;;7.10;50.40;;;;;;5017024;28;20025;-76
2022/03/14 01:55:38;;;;;;;19.65;9.90;;;7.10;50.50;;;;;;5020697;28;20044;-74
2022/03/14 01:58:03;;;;;;;20.15;9.68;;;7.00;50.50;;;;;;5026880;28;20058;-76
2022/03/14 02:00:29;;;;;;;22.88;9.40;;;7.00;50.60;;;;;;5018618;28;20038;-75
2022/03/14 02:02:55;;;;;;;21.98;10.13;;;7.00;50.60;;;;;;5016616;28;20088;-75
2022/03/14 02:05:21;;;;;;;25.67;10.18;;;7.00;50.70;;;;;;5015198;28;20029;-74
2022/03/14 02:07:46;;;;;;;23.52;9.55;;;6.90;50.80;;;;;;5021326;28;20121;-74
2022/03/14 02:10:12;;;;;;;22.67;10.13;;;6.90;51.00;;;;;;5015264;28;20030;-75
2022/03/14 02:12:43;;;;;;;20.92;9.50;;;6.80;51.00;;;;;;5014270;28;20029;-76
2022/03/14 02:15:09;;;;;;;20.58;9.38;;;6.90;51.10;;;;;;5006548;28;20022;-73
2022/03/14 02:17:35;;;;;;;21.63;9.50;;;6.90;51.00;;;;;;5014312;28;20041;-74
2022/03/14 02:20:01;;;;;;;20.65;9.95;;;6.90;51.00;;;;;;5014906;28;20026;-72
2022/03/14 02:22:26;;;;;;;24.90;10.98;;;6.90;51.20;;;;;;5014727;28;20030;-74
2022/03/14 02:24:52;;;;;;;19.52;10.00;;;6.90;51.30;;;;;;5014161;28;20037;-75
2022/03/14 02:27:18;;;;;;;28.13;11.13;;;6.80;51.40;;;;;;4996382;28;20076;-77
2022/03/14 02:29:45;;;;;;;23.08;11.05;;;6.80;51.40;;;;;;5013993;28;20022;-76
2022/03/14 02:32:12;;;;;;;23.20;10.32;;;6.80;51.40;;;;;;5014365;28;20422;-76
2022/03/14 02:34:38;;;;;;;24.60;11.00;;;6.80;51.40;;;;;;5013408;28;20380;-75
2022/03/14 02:37:04;;;;;;;22.52;10.25;;;6.80;51.50;;;;;;5014171;28;20050;-73
2022/03/14 02:39:32;;;;;;;19.25;9.35;;;6.80;51.50;;;;;;5014618;28;20317;-74
2022/03/14 02:41:59;;;;;;;25.88;10.40;;;6.80;51.90;;;;;;5014482;28;20026;-75
2022/03/14 02:44:25;;;;;;;24.63;9.98;;;6.70;51.40;;;;;;5016245;28;20118;-75
2022/03/14 02:46:50;;;;;;;24.77;10.18;;;6.70;51.40;;;;;;5015584;28;20108;-75
2022/03/14 02:49:16;;;;;;;28.98;10.50;;;6.50;51.30;;;;;;5016011;28;20038;-73
2022/03/14 02:51:42;;;;;;;20.65;9.57;;;6.70;51.50;;;;;;5013203;28;20468;-74
2022/03/14 02:54:09;;;;;;;25.17;10.27;;;6.70;51.50;;;;;;5012834;28;20018;-73
2022/03/14 02:56:39;;;;;;;20.77;10.38;;;6.60;51.70;;;;;;5012492;28;20017;-72
2022/03/14 02:59:06;;;;;;;19.13;9.95;;;6.70;51.80;;;;;;5012570;28;20033;-78
2022/03/14 03:01:32;;;;;;;18.58;9.63;;;6.60;51.70;;;;;;5012550;28;20026;-73
2022/03/14 03:03:58;;;;;;;20.65;9.82;;;6.60;51.70;;;;;;5012300;28;20028;-71
2022/03/14 03:06:24;;;;;;;24.20;9.85;;;6.60;51.70;;;;;;5011723;28;20026;-73
2022/03/14 03:08:54;;;;;;;18.88;9.65;;;6.50;51.80;;;;;;5012763;28;20045;-74
2022/03/14 03:11:20;;;;;;;23.55;10.30;;;6.50;51.90;;;;;;5012405;28;20550;-74
2022/03/14 03:13:47;;;;;;;19.88;9.77;;;6.50;52.00;;;;;;5012494;28;20021;-71
2022/03/14 03:16:15;;;;;;;21.50;9.50;;;6.50;52.10;;;;;;5012091;28;20022;-75
2022/03/14 03:18:42;;;;;;;21.25;10.25;;;6.50;52.10;;;;;;5012238;28;20022;-74
2022/03/14 03:21:07;;;;;;;20.77;10.23;;;6.50;52.10;;;;;;5012428;28;20446;-75
2022/03/14 03:23:34;;;;;;;20.95;9.60;;;6.50;52.10;;;;;;5012391;28;20026;-73
2022/03/14 03:26:00;;;;;;;19.52;9.55;;;6.40;52.10;;;;;;5012337;28;20088;-74
2022/03/14 03:28:26;;;;;;;20.55;10.20;;;6.40;52.20;;;;;;5012482;28;20523;-74
2022/03/14 03:30:52;;;;;;;21.63;10.23;;;6.50;52.30;;;;;;5013750;28;20064;-74
2022/03/14 03:33:17;;;;;;;24.02;10.35;;;6.30;52.30;;;;;;5012833;28;20105;-74
2022/03/14 03:35:43;;;;;;;21.38;10.10;;;6.30;52.30;;;;;;5012212;28;20471;-73
2022/03/14 03:38:08;;;;;;;23.58;10.43;;;6.30;52.40;;;;;;5012845;28;20029;-74
2022/03/14 03:40:34;;;;;;;23.38;9.63;;;6.30;52.30;;;;;;5012152;28;20036;-75
2022/03/14 03:43:00;;;;;;;23.80;10.43;;;6.30;52.30;;;;;;4994955;28;20121;-74
2022/03/14 03:45:26;;;;;;;24.98;11.05;;;6.30;52.40;;;;;;5012146;28;20026;-73
2022/03/14 03:47:52;;;;;;;22.90;10.50;;;6.30;52.50;;;;;;5012389;28;20030;-74
2022/03/14 03:50:18;;;;;;;23.15;10.98;;;6.30;52.60;;;;;;4994679;28;20036;-73
2022/03/14 03:52:44;;;;;;;26.27;10.55;;;6.20;52.70;;;;;;5012078;28;20025;-75
2022/03/14 03:55:09;;;;;;;23.27;10.25;;;6.20;52.80;;;;;;5015086;28;20038;-77
2022/03/14 03:57:35;;;;;;;21.52;9.88;;;6.20;52.80;;;;;;5016665;28;20080;-77
2022/03/14 04:00:03;;;;;;;19.83;9.88;;;6.20;53.40;;;;;;5013383;28;20080;-77
2022/03/14 04:02:32;;;;;;;24.25;11.05;;;6.20;52.80;;;;;;5014085;28;20092;-78
2022/03/14 04:04:59;;;;;;;19.50;10.13;;;6.20;52.90;;;;;;5014607;28;20028;-76
2022/03/14 04:07:26;;;;;;;27.55;10.93;;;6.20;52.90;;;;;;5014192;28;20033;-76
2022/03/14 04:09:55;;;;;;;23.00;10.82;;;6.20;53.00;;;;;;5017477;28;20293;-78
2022/03/14 04:12:24;;;;;;;25.42;10.77;;;6.10;53.00;;;;;;5014354;28;20101;-77
2022/03/14 04:14:51;;;;;;;20.65;10.48;;;6.10;53.00;;;;;;5014079;28;20025;-78
2022/03/14 04:17:17;;;;;;;25.58;10.98;;;6.10;53.10;;;;;;4999161;28;20029;-78
2022/03/14 04:19:43;;;;;;;26.40;10.57;;;6.00;53.20;;;;;;5019127;28;20026;-76
2022/03/14 04:22:09;;;;;;;24.75;10.90;;;6.10;53.30;;;;;;5017221;28;20022;-76
2022/03/14 04:24:36;;;;;;;28.35;11.52;;;6.00;53.30;;;;;;5017916;28;20129;-76
2022/03/14 04:27:02;;;;;;;24.08;10.40;;;6.00;53.90;;;;;;5000129;28;20108;-78
2022/03/14 04:29:28;;;;;;;22.02;10.70;;;6.00;53.50;;;;;;5020821;28;20057;-73
2022/03/14 04:31:54;;;;;;;22.52;10.57;;;5.90;53.50;;;;;;5017658;28;20113;-74
2022/03/14 04:34:19;;;;;;;25.60;11.63;;;6.00;53.50;;;;;;4999884;28;20022;-74
2022/03/14 04:36:49;;;;;;;20.20;10.40;;;6.00;53.60;;;;;;5016637;28;20026;-76
2022/03/14 04:39:14;;;;;;;21.63;10.52;;;5.90;53.70;;;;;;5017810;28;20018;-73
2022/03/14 04:41:40;;;;;;;23.65;10.52;;;5.90;53.80;;;;;;5016187;28;20037;-76
2022/03/14 04:44:06;;;;;;;26.80;11.30;;;5.90;53.90;;;;;;5016304;28;20030;-74
2022/03/14 04:46:32;;;;;;;23.95;11.77;;;5.90;53.80;;;;;;5017856;28;20029;-76
2022/03/14 04:48:58;;;;;;;23.52;11.00;;;5.90;53.90;;;;;;5018600;28;20030;-76
2022/03/14 04:51:24;;;;;;;27.10;10.85;;;5.90;53.90;;;;;;5017314;28;20037;-75
2022/03/14 04:53:50;;;;;;;24.50;11.05;;;5.90;53.90;;;;;;5015675;28;20026;-74
2022/03/14 04:56:15;;;;;;;23.25;10.98;;;5.90;54.10;;;;;;5015133;28;20383;-73
2022/03/14 04:58:41;;;;;;;29.60;11.90;;;5.90;54.10;;;;;;5015182;28;20476;-75
2022/03/14 05:01:06;;;;;;;24.27;11.55;;;5.80;54.20;;;;;;5015628;28;20076;-75
2022/03/14 05:03:34;;;;;;;28.40;12.23;;;5.80;54.20;;;;;;5016569;28;20030;-75
2022/03/14 05:05:59;;;;;;;27.85;12.82;;;5.70;54.40;;;;;;5022736;28;20049;-76
2022/03/14 05:08:25;;;;;;;36.10;12.18;;;5.70;55.10;;;;;;5020036;28;20042;-75
2022/03/14 05:10:50;;;;;;;28.10;12.00;;;5.70;54.60;;;;;;5015382;28;20064;-77
2022/03/14 05:13:17;;;;;;;28.05;12.15;;;5.80;54.50;;;;;;4998520;28;20161;-76
2022/03/14 05:15:43;;;;;;;28.42;12.30;;;5.70;54.50;;;;;;5016635;28;20022;-74
2022/03/14 05:18:09;;;;;;;26.90;11.98;;;5.60;54.60;;;;;;5015200;28;20025;-73
2022/03/14 05:20:36;;;;;;;27.35;12.60;;;5.70;54.60;;;;;;5014592;28;20030;-73
2022/03/14 05:23:03;;;;;;;28.42;12.30;;;5.70;54.90;;;;;;5015026;28;20105;-75
2022/03/14 05:25:30;;;;;;;23.27;12.65;;;5.70;54.80;;;;;;5014151;28;20018;-72
2022/03/14 05:27:56;;;;;;;26.17;11.85;;;5.70;54.90;;;;;;5013454;28;20049;-73
2022/03/14 05:30:23;;;;;;;29.23;13.10;;;5.70;55.00;;;;;;5013890;28;20033;-75
2022/03/14 05:32:49;;;;;;;33.25;12.52;;;5.60;55.20;;;;;;5013925;28;20018;-75
2022/03/14 05:35:15;;;;;;;25.63;12.65;;;5.50;55.30;;;;;;5013704;28;20018;-75
2022/03/14 05:37:44;;;;;;;24.58;12.35;;;5.50;55.40;;;;;;5014205;28;20041;-74
2022/03/14 05:40:12;;;;;;;29.90;12.77;;;5.50;55.50;;;;;;5014322;28;20391;-75
2022/03/14 05:42:37;;;;;;;30.60;12.70;;;5.50;55.50;;;;;;5014144;28;20532;-74
2022/03/14 05:45:04;;;;;;;30.27;13.93;;;5.50;55.70;;;;;;5014222;28;20030;-74
2022/03/14 05:47:30;;;;;;;28.00;13.00;;;5.50;55.80;;;;;;5013912;28;20025;-74
2022/03/14 05:49:55;;;;;;;27.67;13.30;;;5.50;55.90;;;;;;5014301;28;20030;-73
2022/03/14 05:52:21;;;;;;;30.45;12.88;;;5.40;56.00;;;;;;5014784;28;20026;-75
2022/03/14 05:54:48;;;;;;;31.50;13.00;;;5.40;56.10;;;;;;5014751;28;20414;-73
2022/03/14 05:57:14;;;;;;;29.45;12.52;;;5.40;56.10;;;;;;5013213;28;20484;-76
2022/03/14 05:59:39;;;;;;;29.33;13.75;;;5.40;56.10;;;;;;5013936;28;20041;-76
2022/03/14 06:02:05;;;;;;;25.10;12.85;;;5.40;56.20;;;;;;5015070;28;20056;-75
2022/03/14 06:04:30;;;;;;;31.27;14.23;;;5.30;56.30;;;;;;5015461;28;20036;-74
2022/03/14 06:06:56;;;;;;;28.20;12.82;;;5.30;56.30;;;;;;5014832;28;20514;-75
2022/03/14 06:09:25;;;;;;;28.58;13.00;;;5.40;56.40;;;;;;5016013;28;20029;-76
2022/03/14 06:11:51;;;;;;;29.20;13.15;;;5.40;56.10;;;;;;4998325;28;20021;-74
2022/03/14 06:14:17;;;;;;;29.92;13.63;;;5.40;56.00;;;;;;5019411;28;20018;-73
2022/03/14 06:16:43;;;;;;;35.75;15.95;;;5.50;56.10;;;;;;5018590;28;20022;-74
2022/03/14 06:19:08;;;;;;;29.98;13.65;;;5.40;56.30;;;;;;5015996;28;20504;-75
2022/03/14 06:21:34;;;;;;;32.13;14.43;;;5.50;56.20;;;;;;5014269;28;20029;-74
2022/03/14 06:24:00;;;;;;;24.58;12.55;;;5.50;56.10;;;;;;5015347;28;20049;-74
2022/03/14 06:26:26;;;;;;;30.08;13.50;;;5.50;56.10;;;;;;5014385;28;20029;-75
2022/03/14 06:28:52;;;;;;;30.92;14.50;;;5.50;55.90;;;;;;4996456;28;20501;-75
2022/03/14 06:31:17;;;;;;;29.85;12.80;;;5.50;56.10;;;;;;5014475;28;20025;-73
2022/03/14 06:33:43;;;;;;;30.25;14.50;;;5.50;56.10;;;;;;5014857;28;20605;-75
2022/03/14 06:36:08;;;;;;;27.88;12.68;;;5.60;56.00;;;;;;5014465;28;20026;-75
2022/03/14 06:38:35;;;;;;;33.20;13.75;;;5.50;55.90;;;;;;5015079;28;20026;-76
2022/03/14 06:41:01;;;;;;;30.17;13.88;;;5.60;55.90;;;;;;4995967;28;20025;-75
2022/03/14 06:43:29;;;;;;;33.17;13.43;;;5.60;55.70;;;;;;5013625;28;20029;-75
2022/03/14 06:45:55;;;;;;;32.13;13.55;;;5.80;55.70;;;;;;5013184;28;20026;-75
2022/03/14 06:48:21;;;;;;;33.83;13.75;;;5.80;55.70;;;;;;5013718;28;20092;-76
2022/03/14 06:50:46;;;;;;;30.20;14.10;;;5.80;55.70;;;;;;5013475;28;20030;-73
2022/03/14 06:53:12;;;;;;;31.27;13.13;;;5.90;55.40;;;;;;5013752;28;20037;-75
2022/03/14 06:55:37;;;;;;;30.00;14.30;;;5.90;55.50;;;;;;4997049;28;20116;-74
2022/03/14 06:58:03;;;;;;;29.67;12.68;;;6.00;55.40;;;;;;4997247;28;20018;-75
2022/03/14 07:00:29;;;;;;;29.92;14.23;;;6.10;55.10;;;;;;5014648;28;20037;-75
2022/03/14 07:02:54;;;;;;;34.17;16.08;;;6.10;55.00;;;;;;5014143;28;20036;-76
2022/03/14 07:05:23;;;;;;;30.58;14.20;;;6.20;55.00;;;;;;5021251;28;20029;-74
2022/03/14 07:07:52;;;;;;;34.38;14.48;;;6.30;54.70;;;;;;5023796;28;20037;-75
2022/03/14 07:10:18;;;;;;;28.98;13.05;;;6.30;54.50;;;;;;5014218;28;20033;-73
2022/03/14 07:12:46;;;;;;;30.77;12.88;;;6.50;54.20;;;;;;5013099;28;20497;-72
2022/03/14 07:15:17;;;;;;;32.15;13.75;;;6.50;54.10;;;;;;5012950;28;20026;-75
2022/03/14 07:17:43;;;;;;;39.05;15.20;;;6.60;54.00;;;;;;5012823;28;20504;-74
2022/03/14 07:20:10;;;;;;;30.42;14.18;;;6.70;53.90;;;;;;5013439;28;20109;-77
2022/03/14 07:22:56;;;;;;;31.17;12.77;;;6.70;53.50;;;;;;5012786;28;20079;-81
2022/03/14 07:25:25;;;;;;;33.53;13.85;;;6.70;53.30;;;;;;5013046;28;20052;-76
2022/03/14 07:27:52;;;;;;;33.03;13.65;;;6.70;53.20;;;;;;5017221;28;20456;-77
2022/03/14 07:30:17;;;;;;;34.60;13.52;;;6.80;53.10;;;;;;4998210;28;20380;-79
2022/03/14 07:32:43;;;;;;;29.65;14.13;;;6.80;53.30;;;;;;5015714;28;20044;-77
2022/03/14 07:35:10;;;;;;;32.58;13.77;;;6.80;53.20;;;;;;5013807;28;20018;-74
2022/03/14 07:37:36;;;;;;;37.45;14.00;;;6.90;53.00;;;;;;4997581;28;20475;-74
2022/03/14 07:40:02;;;;;;;32.33;13.27;;;6.90;52.70;;;;;;5012941;28;20034;-77
2022/03/14 07:42:28;;;;;;;31.92;13.95;;;7.00;52.80;;;;;;5013026;28;20089;-77
2022/03/14 07:44:53;;;;;;;34.63;12.68;;;7.10;52.60;;;;;;5013885;28;20049;-79
2022/03/14 07:47:19;;;;;;;30.60;12.88;;;7.10;52.30;;;;;;5014976;28;20503;-76
2022/03/14 07:49:45;;;;;;;29.63;13.75;;;7.20;52.10;;;;;;5017792;28;20046;-77
2022/03/14 07:52:11;;;;;;;36.65;13.38;;;7.30;51.90;;;;;;5021106;28;20018;-77
2022/03/14 07:54:36;;;;;;;37.15;13.30;;;7.40;51.90;;;;;;5025122;28;20434;-76
2022/03/14 07:57:02;;;;;;;30.60;13.20;;;7.50;51.60;;;;;;5020092;28;20048;-76
2022/03/14 07:59:28;;;;;;;30.52;12.90;;;7.70;51.20;;;;;;5017557;28;20061;-79
2022/03/14 08:01:53;;;;;;;33.88;14.25;;;7.80;50.70;;;;;;5017522;28;20049;-75
2022/03/14 08:04:19;;;;;;;32.28;14.00;;;7.90;50.20;;;;;;5016371;28;20357;-76
2022/03/14 08:06:45;;;;;;;26.33;12.73;;;8.00;49.90;;;;;;4997725;28;20022;-76
2022/03/14 08:09:11;;;;;;;31.90;13.63;;;8.20;49.80;;;;;;5015759;28;20328;-75
2022/03/14 08:11:38;;;;;;;29.73;13.40;;;8.30;49.60;;;;;;4998886;28;20096;-76
2022/03/14 08:14:05;;;;;;;27.98;12.75;;;8.40;49.10;;;;;;5018676;28;20018;-74
2022/03/14 08:16:31;;;;;;;32.28;13.95;;;8.40;49.40;;;;;;5001246;28;20034;-74
2022/03/14 08:18:56;;;;;;;29.45;12.60;;;8.60;49.10;;;;;;5002228;28;20026;-74
2022/03/14 08:21:22;;;;;;;25.55;13.63;;;8.70;49.10;;;;;;4998665;28;20119;-75
2022/03/14 08:23:47;;;;;;;27.60;12.88;;;8.80;49.10;;;;;;5015374;28;20034;-74
2022/03/14 08:26:15;;;;;;;25.10;13.07;;;9.00;48.80;;;;;;5015382;28;20422;-75
2022/03/14 08:28:43;;;;;;;34.65;14.00;;;9.10;48.20;;;;;;5015696;28;20035;-76
2022/03/14 08:31:09;;;;;;;32.03;15.07;;;9.20;48.00;;;;;;5015474;28;20018;-80
2022/03/14 08:33:39;;;;;;;58.67;24.80;;;9.20;47.90;;;;;;5016340;28;20022;-76
2022/03/14 08:36:08;;;;;;;37.22;16.40;;;9.30;47.90;;;;;;5016413;28;20357;-76
2022/03/14 08:38:34;;;;;;;42.05;15.40;;;9.40;47.90;;;;;;5018962;28;20053;-73
2022/03/14 08:41:00;;;;;;;32.10;14.15;;;9.50;47.70;;;;;;5017138;28;20471;-75
2022/03/14 08:43:26;;;;;;;30.88;14.25;;;9.90;47.10;;;;;;5016829;28;20129;-75
2022/03/14 08:45:54;;;;;;;31.88;13.95;;;10.30;46.60;;;;;;5016418;28;20022;-74
2022/03/14 08:48:20;;;;;;;30.33;13.43;;;10.70;45.80;;;;;;5016991;28;20097;-74
2022/03/14 08:50:45;;;;;;;28.73;13.35;;;11.30;45.10;;;;;;5017566;28;20041;-75
2022/03/14 08:53:11;;;;;;;31.65;15.45;;;11.80;44.10;;;;;;5018078;28;20061;-76
2022/03/14 08:55:37;;;;;;;28.25;13.52;;;12.20;43.00;;;;;;5027143;28;20018;-74
2022/03/14 08:58:03;;;;;;;29.05;12.93;;;12.40;42.80;;;;;;5016992;28;20022;-72
2022/03/14 09:00:29;;;;;;;40.38;19.45;;;13.00;41.90;;;;;;4998497;28;20029;-73
2022/03/14 09:02:55;;;;;;;29.95;14.05;;;13.70;41.10;;;;;;5013966;28;20026;-74
2022/03/14 09:05:21;;;;;;;26.63;13.50;;;14.10;40.20;;;;;;5017055;28;20092;-76
2022/03/14 09:07:47;;;;;;;32.42;14.35;;;14.40;39.80;;;;;;5018358;28;20042;-77
2022/03/14 09:10:14;;;;;;;28.13;14.43;;;14.60;39.50;;;;;;5017437;28;20383;-77
2022/03/14 09:12:42;;;;;;;28.60;13.48;;;15.10;39.00;;;;;;5022514;28;20026;-77
2022/03/14 09:15:11;;;;;;;37.95;14.52;;;15.60;38.50;;;;;;5030239;28;20026;-78
2022/03/14 09:17:51;;;;;;;26.63;13.35;;;15.90;37.70;;;;;;5024125;28;20043;-79
2022/03/14 09:20:19;;;;;;;28.00;13.07;;;15.60;37.80;;;;;;5019701;28;20022;-76
2022/03/14 09:22:45;;;;;;;26.38;12.20;;;15.90;37.50;;;;;;5001417;28;20030;-76
2022/03/14 09:25:13;;;;;;;39.97;13.10;;;16.10;37.50;;;;;;5017579;28;20034;-76
2022/03/14 09:27:39;;;;;;;22.92;12.95;;;16.50;37.20;;;;;;5016688;28;20090;-76
2022/03/14 09:30:05;;;;;;;33.70;13.70;;;17.00;36.60;;;;;;5014277;28;20440;-76
2022/03/14 09:32:31;;;;;;;32.47;12.32;;;17.10;36.30;;;;;;5015113;28;20022;-76
2022/03/14 09:34:59;;;;;;;23.67;12.32;;;17.60;35.90;;;;;;5014560;28;20036;-76
2022/03/14 09:37:28;;;;;;;32.10;13.50;;;18.20;35.60;;;;;;5014853;28;20032;-76
2022/03/14 09:39:54;;;;;;;24.27;12.80;;;18.20;35.40;;;;;;5027344;28;20056;-77
2022/03/14 09:42:21;;;;;;;29.80;12.55;;;18.90;34.80;;;;;;5018437;28;20022;-77
2022/03/14 09:44:53;;;;;;;25.48;13.30;;;19.30;34.40;;;;;;5020316;28;20049;-76
2022/03/14 09:47:21;;;;;;;31.65;13.05;;;19.20;35.00;;;;;;5019084;28;20053;-77
2022/03/14 09:49:47;;;;;;;26.63;13.15;;;20.00;33.80;;;;;;5018021;28;20026;-76
2022/03/14 09:52:15;;;;;;;27.95;12.82;;;20.30;33.70;;;;;;5017232;28;20026;-76
2022/03/14 09:54:41;;;;;;;34.42;14.60;;;20.60;33.40;;;;;;5016876;28;20018;-77
2022/03/14 09:57:06;;;;;;;24.48;12.75;;;21.50;32.60;;;;;;5019280;28;20028;-77
2022/03/14 09:59:35;;;;;;;29.15;12.30;;;21.90;32.00;;;;;;4999599;28;20033;-77
2022/03/14 10:02:01;;;;;;;30.80;12.10;;;21.90;32.80;;;;;;5018691;28;20106;-77
2022/03/14 10:04:26;;;;;;;26.45;13.02;;;21.10;33.30;;;;;;5022404;28;20121;-78
2022/03/14 10:06:52;;;;;;;24.33;11.30;;;20.10;34.60;;;;;;5019087;28;20499;-77
2022/03/14 10:09:17;;;;;;;20.40;11.77;;;19.10;36.70;;;;;;5017288;28;20030;-78
2022/03/14 10:11:43;;;;;;;24.17;12.52;;;18.10;38.40;;;;;;5019994;28;20145;-76
2022/03/14 10:14:11;;;;;;;26.85;12.30;;;17.40;39.60;;;;;;5019410;28;20086;-76
2022/03/14 10:16:37;;;;;;;23.35;11.85;;;16.90;40.70;;;;;;5022957;28;20018;-75
2022/03/14 10:19:07;;;;;;;22.00;12.68;;;16.50;41.60;;;;;;5018299;28;20018;-78
2022/03/14 10:21:37;;;;;;;23.90;13.02;;;15.80;43.70;;;;;;5020660;28;20022;-76
2022/03/14 10:24:07;;;;;;;23.00;11.23;;;15.40;45.60;;;;;;5018347;28;20383;-78
2022/03/14 10:26:35;;;;;;;24.65;11.45;;;15.10;49.10;;;;;;5019286;28;20069;-76
2022/03/14 10:29:03;;;;;;;17.77;9.80;;;14.80;50.60;;;;;;5021143;28;20121;-76
2022/03/14 10:31:32;;;;;;;18.98;10.77;;;14.40;54.70;;;;;;5022112;28;20022;-77
2022/03/14 10:34:06;;;;;;;15.48;9.45;;;14.10;56.60;;;;;;5018655;28;20544;-77
2022/03/14 10:36:42;;;;;;;17.42;10.80;;;13.90;57.10;;;;;;5017602;28;20102;-77
2022/03/14 10:39:16;;;;;;;16.50;10.35;;;13.70;57.70;;;;;;5019958;28;20030;-76
2022/03/14 10:41:45;;;;;;;14.18;9.25;;;13.50;58.30;;;;;;5017786;28;20033;-76
2022/03/14 10:44:23;;;;;;;19.65;9.73;;;13.50;60.80;;;;;;4986467;28;20034;-75
2022/03/14 10:46:49;;;;;;;17.48;10.00;;;13.20;62.70;;;;;;5016995;28;20025;-74
2022/03/14 10:49:15;;;;;;;17.30;8.88;;;13.10;63.70;;;;;;5017573;28;20479;-76
2022/03/14 10:51:52;;;;;;;16.13;9.05;;;13.10;65.20;;;;;;5016935;28;20077;-77
2022/03/14 10:54:17;;;;;;;19.30;9.55;;;12.80;67.60;;;;;;5018742;28;20046;-77
2022/03/14 10:57:03;;;;;;;18.50;9.52;;;12.60;69.80;;;;;;5020809;28;20541;-76
2022/03/14 10:59:32;;;;;;;16.30;9.82;;;12.60;71.00;;;;;;5020285;28;20037;-75
2022/03/14 11:01:59;;;;;;;17.23;9.43;;;12.50;72.70;;;;;;5022378;28;20025;-76
2022/03/14 11:04:27;;;;;;;18.52;10.50;;;12.50;73.70;;;;;;5014366;28;20494;-78
2022/03/14 11:07:00;;;;;;;14.95;9.55;;;12.50;74.60;;;;;;5016314;28;20038;-76
2022/03/14 11:09:44;;;;;;;17.65;10.38;;;12.40;75.50;;;;;;5023152;28;20029;-78
2022/03/14 11:12:13;;;;;;;19.35;9.48;;;12.40;76.40;;;;;;5021110;28;20033;-77
2022/03/14 11:14:39;;;;;;;16.40;9.85;;;12.30;77.10;;;;;;5002021;28;20022;-77
2022/03/14 11:17:15;;;;;;;17.58;9.63;;;12.20;77.80;;;;;;5003651;28;20026;-76
2022/03/14 11:19:41;;;;;;;16.38;9.48;;;12.20;78.50;;;;;;5025913;28;20018;-78
2022/03/14 11:22:13;;;;;;;20.90;10.50;;;12.20;79.10;;;;;;5030215;28;20045;-76
2022/03/14 11:24:44;;;;;;;19.23;10.13;;;12.20;79.30;;;;;;5026672;28;20033;-78
2022/03/14 11:27:20;;;;;;;17.92;9.75;;;12.10;80.00;;;;;;5021429;28;20025;-79
2022/03/14 11:29:46;;;;;;;17.33;10.23;;;11.90;84.50;;;;;;5021862;28;20037;-75
2022/03/14 11:32:14;;;;;;;19.02;10.85;;;11.90;86.40;;;;;;5020993;28;20029;-76
2022/03/14 11:34:40;;;;;;;21.33;12.40;;;11.80;88.80;;;;;;5019287;28;20088;-75
2022/03/14 11:37:06;;;;;;;17.17;10.70;;;11.80;90.30;;;;;;5022034;28;20050;-77
2022/03/14 11:39:32;;;;;;;17.75;10.70;;;11.80;91.20;;;;;;5020072;28;20022;-76
2022/03/14 11:41:59;;;;;;;15.93;9.93;;;11.70;91.60;;;;;;5020142;28;20037;-76
2022/03/14 11:44:26;;;;;;;19.10;10.75;;;11.70;92.10;;;;;;5020803;28;20018;-76
2022/03/14 11:46:55;;;;;;;19.15;10.10;;;11.70;92.60;;;;;;5018968;28;20037;-76
2022/03/14 11:49:26;;;;;;;17.83;9.77;;;11.80;93.50;;;;;;5002137;28;20030;-75
2022/03/14 11:52:08;;;;;;;16.63;10.05;;;11.80;93.90;;;;;;5021077;28;20018;-76
2022/03/14 11:54:40;;;;;;;23.17;10.77;;;11.70;94.30;;;;;;5031091;28;20022;-77
2022/03/14 11:57:07;;;;;;;17.48;10.82;;;11.70;95.00;;;;;;5021275;28;20018;-77
2022/03/14 11:59:35;;;;;;;17.45;10.77;;;11.70;95.50;;;;;;5021367;28;20025;-76
2022/03/14 12:02:03;;;;;;;16.73;9.77;;;11.80;95.90;;;;;;5020155;28;20025;-77
2022/03/14 12:04:37;;;;;;;25.02;11.18;;;11.80;96.20;;;;;;5020043;28;20054;-79
2022/03/14 12:07:05;;;;;;;21.38;9.98;;;11.80;96.60;;;;;;5018409;28;20451;-79
2022/03/14 12:09:31;;;;;;;23.67;10.90;;;11.90;96.80;;;;;;5021937;28;20030;-77
2022/03/14 12:12:27;;;;;;;21.67;11.75;;;11.90;97.00;;;;;;5021227;28;20386;-77
2022/03/14 12:14:58;;;;;;;19.38;11.50;;;12.00;97.00;;;;;;5025180;28;20069;-76
2022/03/14 12:17:32;;;;;;;22.13;10.45;;;12.20;97.30;;;;;;5021719;28;20383;-77
2022/03/14 12:20:02;;;;;;;17.55;11.20;;;12.30;97.20;;;;;;5017075;28;20522;-77
2022/03/14 12:22:30;;;;;;;20.48;11.38;;;12.40;97.20;;;;;;5036304;28;20025;-76
2022/03/14 12:24:57;;;;;;;22.40;12.18;;;12.50;97.30;;;;;;5036978;28;20099;-74
2022/03/14 12:27:29;;;;;;;18.13;10.20;;;12.50;97.30;;;;;;5036993;28;20468;-76
2022/03/14 12:29:57;;;;;;;16.90;10.32;;;12.60;97.60;;;;;;5038614;28;20021;-77
2022/03/14 12:32:27;;;;;;;14.98;10.27;;;12.70;97.90;;;;;;5041811;28;20088;-75
2022/03/14 12:35:01;;;;;;;17.48;11.10;;;12.70;98.00;;;;;;5044629;28;20049;-75